• Join FlightAware (Why Join?)
  • Login
  • US Flag 
11:23AM EDT


 

Airport Tracker/Info


-or-


 

Live Flight TrackerFlight Track Log ✈ UAL6118 ✈ 05-May-2013 ✈ CYOW - KORD

Flight Track Log - Related Links

Times and Time Zones

All times are in EDT time to prevent confusion due to time zone crossing. See the UAL6118 flight status page for this flight to view local times or setup timezone preferences in your user account.

Time Position Orientation Groundspeed Altitude Reporting Facility
EDT Latitude Longitude Course Direction KTS MPH feet Rate Location/Type
05:15PM 45.2833 -75.6667 251° West 170 196 1,700  Level Toronto Center
05:16PM 45.2667 -75.7167 245° Southwest 190 219 3,700 1,740 Climbing Toronto Center
05:17PM 45.2833 -75.8167 283° West 240 276 5,200 1,920 Climbing Toronto Center
05:18PM 45.2833 -75.9167 270° West 260 299 7,600 2,160 Climbing Toronto Center
05:19PM 45.3000 -76.0333 282° West 270 311 9,600 1,560 Climbing Toronto Center
05:20PM 45.0704 -76.6284 251° West  Level FlightAware Approximate
05:20PM 45.3333 -76.1500 292° West 290 334 10,800  Level Toronto Center
05:21PM 45.0373 -76.7669 251° West  Level FlightAware Approximate
05:22PM 45.2941 -76.3275 251° West  Level Estimated
05:22PM 45.3500 -76.3833 251° West 330 380 13,500  Level Toronto Center
05:23PM 45.3167 -76.5333 253° West 350 403 14,400 1,020 Climbing Toronto Center
05:24PM 45.3000 -76.6667 260° West 360 414 15,600 1,140 Climbing Toronto Center
05:25PM 45.2667 -76.7833 248° West 360 414 16,700 1,080 Climbing Toronto Center
05:26PM 45.2167 -76.9333 245° Southwest 370 426 17,800 900 Climbing Toronto Center
05:27PM 45.1833 -77.0833 253° West 370 426 18,600 900 Climbing Toronto Center
05:28PM 45.1500 -77.2167 251° West 380 437 19,700 900 Climbing Toronto Center
05:29PM 45.1333 -77.3667 261° West 380 437 20,500 780 Climbing Toronto Center
05:30PM 45.0833 -77.5000 242° Southwest 390 449 21,300 840 Climbing Toronto Center
05:31PM 45.0500 -77.6500 253° West 400 460 22,200 840 Climbing Toronto Center
05:32PM 45.0167 -77.8000 253° West 400 460 23,000 900 Climbing Toronto Center
05:33PM 44.9667 -77.9667 247° West 400 460 24,100 1,140 Climbing Toronto Center
05:34PM 44.9333 -78.1000 251° West 400 460 25,300 1,200 Climbing Toronto Center
05:35PM 44.9000 -78.2500 253° West 390 449 26,500 1,140 Climbing Toronto Center
05:36PM 44.8667 -78.3833 251° West 380 437 27,600 1,080 Climbing Toronto Center
05:37PM 44.8333 -78.5333 253° West 370 426 28,700 900 Climbing Toronto Center
05:38PM 44.8000 -78.6500 248° West 370 426 29,400 660 Climbing Toronto Center
05:39PM 44.7667 -78.7833 251° West 380 437 30,100 660 Climbing Toronto Center
05:40PM 44.7167 -78.9333 245° Southwest 380 437 30,800 660 Climbing Toronto Center
05:41PM 44.6667 -79.0667 242° Southwest 390 449 31,500 720 Climbing Toronto Center
05:42PM 44.6167 -79.2167 245° Southwest 400 460 32,300 720 Climbing Toronto Center
05:43PM 44.5667 -79.3500 242° Southwest 400 460 33,000 660 Climbing Toronto Center
05:44PM 44.5167 -79.5000 245° Southwest 400 460 33,700 660 Climbing Toronto Center
05:45PM 44.4667 -79.6333 242° Southwest 410 472 34,400 720 Climbing Toronto Center
05:46PM 44.4000 -79.7667 235° Southwest 410 472 35,200 720 Climbing Toronto Center
05:47PM 44.3500 -79.9167 245° Southwest 400 460 35,900 360 Climbing Toronto Center
05:48PM 44.3000 -80.0500 242° Southwest 400 460 36,000  Climbing Toronto Center
05:49PM 44.2500 -80.1833 242° Southwest 400 460 36,000  Level Toronto Center
05:50PM 44.2000 -80.3000 239° Southwest 400 460 36,000  Level Toronto Center
05:51PM 44.1500 -80.4500 245° Southwest 400 460 36,000  Level Toronto Center
05:52PM 44.1000 -80.5833 242° Southwest 400 460 36,000  Level Toronto Center
05:53PM 44.0500 -80.7167 242° Southwest 390 449 36,000  Level Toronto Center
05:54PM 43.9833 -80.8667 238° Southwest 400 460 36,000  Level Toronto Center
05:56PM 43.9092 -81.1047 247° West 447 514 36,000  Level Cleveland Center
05:57PM 43.8544 -81.2453 242° Southwest 440 506 36,000  Level Cleveland Center
05:57PM 43.8167 -81.2667 202° Southwest 400 460 36,000  Level Toronto Center
05:58PM 43.7667 -81.4167 245° Southwest 400 460 36,000  Level Toronto Center
05:59PM 43.7167 -81.5500 243° Southwest 400 460 36,000  Level Toronto Center
06:00PM 43.6667 -81.6833 243° Southwest 400 460 36,000  Level Toronto Center
06:01PM 43.6167 -81.8167 243° Southwest 400 460 36,000  Level Toronto Center
06:02PM 43.5500 -81.9500 235° Southwest 400 460 36,000  Level Toronto Center
06:03PM 43.5000 -82.1000 245° Southwest 400 460 36,000  Level Toronto Center
06:04PM 43.4764 -82.1853 249° West 410 472 36,000  Level Cleveland Center
06:05PM 43.4225 -82.3153 240° Southwest 410 472 36,000  Level Cleveland Center
06:06PM 43.3683 -82.4536 242° Southwest 410 472 36,000 -120 Level Cleveland Center
06:06PM 43.3333 -82.5000 224° Southwest 410 472 35,900 -840 Descending Toronto Center
06:07PM 43.2833 -82.6167 240° Southwest 400 460 34,900 -1,140 Descending Toronto Center
06:08PM 43.2553 -82.7239 250° West 410 472 34,000 -1,620 Descending Cleveland Center
06:09PM 43.2128 -82.8678 248° West 410 472 32,200 -1,560 Descending Cleveland Center
06:10PM 43.1703 -83.0142 248° West 415 478 30,900 -1,140 Descending Cleveland Center
06:11PM 43.1294 -83.1633 249° West 420 483 30,000 -480 Descending Cleveland Center
06:12PM 43.0886 -83.3153 250° West 427 491 30,000  Level Cleveland Center
06:13PM 43.0472 -83.4669 250° West 427 491 30,000  Level Cleveland Center
06:14PM 43.0017 -83.6181 248° West 427 491 30,000  Level Cleveland Center
06:15PM 42.9622 -83.7722 251° West 427 491 30,000  Level Cleveland Center
06:16PM 42.9472 -83.9361 263° West 427 491 30,000  Level Cleveland Center
06:18PM 42.9194 -84.2319 263° West 436 502 30,000  Level Chicago Center
06:19PM 42.9031 -84.3953 262° West 436 502 30,000  Level Chicago Center
06:20PM 42.8867 -84.5597 262° West 439 505 30,000  Level Chicago Center
06:21PM 42.8703 -84.7219 262° West 434 499 30,000  Level Chicago Center
06:22PM 42.8497 -84.9181 262° West 435 501 30,000  Level Chicago Center
06:23PM 42.8319 -85.0825 262° West 438 504 30,000  Level Chicago Center
06:24PM 42.8150 -85.2458 262° West 437 503 30,000  Level Chicago Center
06:25PM 42.7967 -85.4081 261° West 434 499 30,000 -540 Level Chicago Center
06:26PM 42.7742 -85.5714 259° West 436 502 29,000 -1,620 Descending Chicago Center
06:27PM 42.7439 -85.7358 256° West 442 509 26,700 -2,400 Descending Chicago Center
06:28PM 42.7136 -85.9011 256° West 447 514 24,100 -2,700 Descending Chicago Center
06:29PM 42.6789 -86.0942 256° West 438 504 21,200 -2,040 Descending Chicago Center
06:30PM 42.6508 -86.2506 256° West 429 494 20,000 -600 Descending Chicago Center
06:31PM 42.6208 -86.4022 255° West 417 480 20,000 -720 Level Chicago Center
06:33PM 42.5778 -86.5639 256° West  Level FlightAware Approximate
06:33PM 42.5633 -86.7142 256° West 415 478 17,900  Level Chicago Center
06:34PM 42.5256 -86.8556 250° West 403 464 15,900 -2,280 Descending Chicago Center
06:35PM 42.4814 -87.0175 250° West 392 451 13,300 -2,280 Descending Chicago Center
06:36PM 42.4439 -87.1472 249° West 375 432 11,200 -1,560 Descending Chicago Center
06:37PM 42.4094 -87.2733 250° West 363 418 10,100 -600 Descending Chicago Center
06:38PM 42.3775 -87.3947 250° West 352 405 10,000 -120 Descending Chicago Center
06:40PM 42.3422 -87.5175 249° West 351 404 9,900 -480 Descending Chicago Center
06:41PM 42.2681 -87.6097 223° Southwest 294 338 9,100 -1,260 Descending Chicago Center
06:42PM 42.2069 -87.6747 218° Southwest 283 326 7,400 -1,020 Descending Chicago Center
06:43PM 42.1483 -87.7364 218° Southwest 272 313 7,000 -180 Descending Chicago Center
06:44PM 42.1000 -87.8500 240° Southwest 283 326 7,100  Climbing Chicago TRACON
06:45PM 42.1000 -87.9333 270° West 294 338 7,100 -60 Level Chicago TRACON
06:46PM 42.0833 -88.0667 260° West 290 334 7,000 -600 Descending Chicago TRACON
06:47PM 42.0800 -88.1453 267° West 285 328 6,000 -1,200 Descending Chicago Center
06:48PM 42.0667 -88.2422 260° West 274 315 4,700 -1,020 Descending Chicago Center
06:49PM 42.0558 -88.3225 260° West 241 277 4,000 -240 Descending Chicago Center
06:51PM 41.9833 -88.3167 177° South 177 204 4,100  Climbing Chicago TRACON
06:52PM 41.9667 -88.2500 109° East 181 208 4,100 -60 Level Chicago TRACON
06:53PM 41.9667 -88.1833 90° East 181 208 4,000 -300 Descending Chicago TRACON
06:54PM 41.9667 -88.1167 90° East 179 206 3,500 -720 Descending Chicago TRACON
06:55PM 41.9667 -88.0500 90° East 175 201 2,500 -840 Descending Chicago TRACON
06:56PM 41.9667 -88.0000 90° East 133 153 1,900 -780 Descending Chicago TRACON
06:57PM 41.9667 -87.9500 90° East 134 154 1,100 -840 Descending Chicago TRACON
06:59PM 41.9667 -87.9000 103° East  Level FlightAware Approximate